Time;durP1;ratioP1;P1;durP2;ratioP2;P2;SDS_P1;SDS_P2;PMS_P1;PMS_P2;Temp;Humidity;BMP_temperature;BMP_pressure;BME280_temperature;BME280_humidity;BME280_pressure;Samples;Min_cycle;Max_cycle;Signal;HPM_P1;HPM_P2
2022/06/20 00:02:14;;;;;;;;;;;;;;;23.72;43.44;100095.59;5411141;32;35213;-79
2022/06/20 00:05:21;;;;;;;;;;;;;;;24.14;42.54;100094.16;5401744;32;34489;-71
2022/06/20 00:08:23;;;;;;;;;;;;;;;24.27;42.11;100097.28;5412884;32;34215;-72
2022/06/20 00:11:35;;;;;;;;;;;;;;;24.37;41.99;100090.03;5398445;32;34646;-71
2022/06/20 00:14:37;;;;;;;;;;;;;;;24.77;41.00;100092.16;5412491;32;36576;-71
2022/06/20 00:17:39;;;;;;;;;;;;;;;24.91;40.70;100085.34;5406484;32;35424;-72
2022/06/20 00:20:41;;;;;;;;;;;;;;;25.18;40.12;100078.09;5405560;32;34818;-70
2022/06/20 00:23:44;;;;;;;;;;;;;;;25.08;40.37;100075.56;5414304;32;34984;-70
2022/06/20 00:26:45;;;;;;;;;;;;;;;23.99;43.10;100080.44;5400339;32;34900;-76
2022/06/20 00:29:47;;;;;;;;;;;;;;;24.07;43.25;100068.91;5413729;32;35329;-77
2022/06/20 00:32:50;;;;;;;;;;;;;;;24.13;42.84;100077.19;5400443;32;35471;-78
2022/06/20 00:35:53;;;;;;;;;;;;;;;24.56;41.73;100059.44;5411940;32;35193;-70
2022/06/20 00:38:55;;;;;;;;;;;;;;;24.00;43.06;100076.75;5390514;32;35597;-79
2022/06/20 00:41:58;;;;;;;;;;;;;;;23.41;44.60;100065.56;5398094;32;44179;-72
2022/06/20 00:45:00;;;;;;;;;;;;;;;23.76;43.73;100072.84;5417888;32;35739;-77
2022/06/20 00:48:05;;;;;;;;;;;;;;;24.21;42.73;100069.22;5403850;32;34815;-71
2022/06/20 00:51:11;;;;;;;;;;;;;;;24.02;43.78;100066.69;5413060;32;34752;-70
2022/06/20 00:54:22;;;;;;;;;;;;;;;23.77;44.11;100066.50;5400350;32;35015;-77
2022/06/20 00:57:29;;;;;;;;;;;;;;;23.65;44.89;100064.19;5407519;32;34811;-77
2022/06/20 01:00:32;;;;;;;;;;;;;;;24.77;41.46;100054.53;5407357;32;46506;-78
2022/06/20 01:03:35;;;;;;;;;;;;;;;23.77;43.83;100054.91;5402044;32;35281;-76
2022/06/20 01:06:37;;;;;;;;;;;;;;;25.12;40.30;100041.97;5417816;32;35069;-77
2022/06/20 01:09:40;;;;;;;;;;;;;;;25.38;39.38;100048.13;5417753;32;36397;-75
2022/06/20 01:12:47;;;;;;;;;;;;;;;24.56;41.09;100051.38;5417391;32;35471;-72
2022/06/20 01:15:51;;;;;;;;;;;;;;;24.88;40.46;100039.97;5402089;32;35694;-75
2022/06/20 01:18:53;;;;;;;;;;;;;;;23.85;42.65;100024.63;5421392;32;37125;-75
2022/06/20 01:21:55;;;;;;;;;;;;;;;25.13;40.00;100035.59;5433002;32;35391;-78
2022/06/20 01:25:03;;;;;;;;;;;;;;;25.25;39.61;100026.22;5402482;32;44421;-75
2022/06/20 01:28:09;;;;;;;;;;;;;;;24.74;40.41;100014.56;5433592;32;34614;-71
2022/06/20 01:31:11;;;;;;;;;;;;;;;24.85;40.06;100011.56;5404344;32;34780;-75
2022/06/20 01:34:14;;;;;;;;;;;;;;;24.83;40.21;100021.62;5417947;32;36176;-76
2022/06/20 01:37:29;;;;;;;;;;;;;;;24.09;41.81;100022.16;5420825;32;36906;-70
2022/06/20 01:40:31;;;;;;;;;;;;;;;24.53;40.84;100006.84;5380912;32;44457;-70
2022/06/20 01:43:37;;;;;;;;;;;;;;;24.57;40.58;100008.22;5411817;32;35446;-69
2022/06/20 01:46:39;;;;;;;;;;;;;;;23.45;43.18;100021.34;5401420;32;34604;-71
2022/06/20 01:49:41;;;;;;;;;;;;;;;24.31;41.28;100015.44;5413976;32;34685;-70
2022/06/20 01:52:43;;;;;;;;;;;;;;;23.33;43.63;100017.19;5397688;32;34743;-70
2022/06/20 01:55:46;;;;;;;;;;;;;;;22.80;45.12;100019.69;5404635;32;35027;-69
2022/06/20 01:58:54;;;;;;;;;;;;;;;22.61;45.71;100015.25;5406987;32;34639;-72
2022/06/20 02:01:55;;;;;;;;;;;;;;;22.53;45.82;100015.97;5402026;32;34678;-77
2022/06/20 02:04:57;;;;;;;;;;;;;;;23.65;43.11;100006.00;5419204;32;45249;-76
2022/06/20 02:08:00;;;;;;;;;;;;;;;23.79;42.75;100004.62;5398890;32;34491;-70
2022/06/20 02:11:20;;;;;;;;;;;;;;;24.19;41.59;99987.97;5414268;32;34949;-70
2022/06/20 02:14:22;;;;;;;;;;;;;;;22.51;45.82;99995.69;5396799;32;34819;-69
2022/06/20 02:17:35;;;;;;;;;;;;;;;23.43;43.71;99988.47;5400296;32;34397;-70
2022/06/20 02:20:45;;;;;;;;;;;;;;;23.98;42.27;99982.97;5421802;32;34792;-77
2022/06/20 02:23:49;;;;;;;;;;;;;;;23.95;42.45;99990.47;5401364;32;34696;-70
2022/06/20 02:26:52;;;;;;;;;;;;;;;24.45;41.26;99979.94;5413490;32;34977;-72
2022/06/20 02:29:54;;;;;;;;;;;;;;;23.44;43.49;99978.56;5396732;32;34688;-75
2022/06/20 02:33:14;;;;;;;;;;;;;;;24.30;41.54;99971.63;5403268;32;34682;-70
2022/06/20 02:36:16;;;;;;;;;;;;;;;24.30;41.49;99966.25;5412327;32;35382;-76
2022/06/20 02:39:18;;;;;;;;;;;;;;;24.14;41.85;99966.12;5382631;32;34905;-70
2022/06/20 02:42:22;;;;;;;;;;;;;;;22.96;44.76;99977.06;5404956;32;35256;-77
2022/06/20 02:45:24;;;;;;;;;;;;;;;23.60;43.31;99973.38;5405475;32;34243;-75
2022/06/20 02:48:27;;;;;;;;;;;;;;;23.05;44.46;99975.31;5407883;32;34501;-72
2022/06/20 02:51:30;;;;;;;;;;;;;;;22.13;47.10;99976.06;5402773;32;44803;-77
2022/06/20 02:54:33;;;;;;;;;;;;;;;21.92;47.92;99983.41;5415240;32;34267;-69
2022/06/20 02:57:39;;;;;;;;;;;;;;;22.54;46.16;99966.81;5419250;32;34232;-72
2022/06/20 03:00:45;;;;;;;;;;;;;;;22.13;47.63;99973.38;5403869;32;34802;-75
2022/06/20 03:03:48;;;;;;;;;;;;;;;22.50;47.41;99968.06;5417658;32;35070;-71
2022/06/20 03:06:52;;;;;;;;;;;;;;;22.14;48.37;99972.38;5416854;32;35331;-77
2022/06/20 03:10:14;;;;;;;;;;;;;;;22.36;48.18;99963.19;5425510;32;34491;-69
2022/06/20 03:13:15;;;;;;;;;;;;;;;22.29;48.00;99962.94;5428881;32;35402;-76
2022/06/20 03:16:17;;;;;;;;;;;;;;;22.94;47.11;99977.22;5415760;32;35144;-77
2022/06/20 03:19:21;;;;;;;;;;;;;;;21.67;50.85;99979.47;5417433;32;34692;-70
2022/06/20 03:22:29;;;;;;;;;;;;;;;21.89;50.44;99961.25;5391382;32;34150;-76
2022/06/20 03:25:36;;;;;;;;;;;;;;;22.49;49.18;99965.56;5429030;32;45024;-70
2022/06/20 03:28:38;;;;;;;;;;;;;;;22.16;50.23;99967.75;5398185;32;35912;-71
2022/06/20 03:31:41;;;;;;;;;;;;;;;23.13;47.98;99970.91;5398475;32;34667;-77
2022/06/20 03:34:43;;;;;;;;;;;;;;;22.22;49.95;99969.84;5412046;32;34775;-69
2022/06/20 03:37:45;;;;;;;;;;;;;;;21.56;53.15;99962.56;5398459;32;35294;-78
2022/06/20 03:40:47;;;;;;;;;;;;;;;21.31;54.07;99971.13;5389079;32;34791;-77
2022/06/20 03:44:12;;;;;;;;;;;;;;;21.44;54.14;99968.19;5401823;32;34566;-76
2022/06/20 03:47:18;;;;;;;;;;;;;;;21.34;54.30;99973.53;5404450;32;35574;-76
2022/06/20 03:50:25;;;;;;;;;;;;;;;21.64;53.60;99967.22;5413314;32;34628;-70
2022/06/20 03:53:34;;;;;;;;;;;;;;;21.75;53.09;99969.72;5401623;32;37486;-75
2022/06/20 03:56:54;;;;;;;;;;;;;;;22.60;50.55;99958.16;5414511;32;35003;-75
2022/06/20 03:59:57;;;;;;;;;;;;;;;22.55;50.69;99968.47;5401079;32;35372;-70
2022/06/20 04:02:59;;;;;;;;;;;;;;;22.19;51.72;99964.78;5415226;32;44759;-76
2022/06/20 04:06:09;;;;;;;;;;;;;;;23.42;48.15;99964.50;5408896;32;34995;-70
2022/06/20 04:12:46;;;;;;;;;;;;;;;22.17;51.14;99966.75;5408238;32;35094;-75
2022/06/20 04:15:49;;;;;;;;;;;;;;;22.12;51.30;99964.50;5394022;32;35423;-77
2022/06/20 04:18:54;;;;;;;;;;;;;;;21.80;52.18;99975.50;5408950;32;35955;-71
2022/06/20 04:22:10;;;;;;;;;;;;;;;22.80;49.56;99969.66;5419234;32;34635;-78
2022/06/20 04:25:18;;;;;;;;;;;;;;;23.22;47.71;99969.97;5399016;32;35394;-75
2022/06/20 04:28:24;;;;;;;;;;;;;;;22.89;48.45;99963.41;5418339;32;34594;-76
2022/06/20 04:31:33;;;;;;;;;;;;;;;23.74;46.48;99962.13;5390893;32;34857;-72
2022/06/20 04:34:36;;;;;;;;;;;;;;;25.08;42.61;99959.94;5411448;32;45003;-72
2022/06/20 04:37:42;;;;;;;;;;;;;;;25.32;41.85;99956.47;5401283;32;33447;-78
2022/06/20 04:40:44;;;;;;;;;;;;;;;25.88;41.12;99963.78;5378517;32;35531;-77
2022/06/20 04:43:54;;;;;;;;;;;;;;;25.52;40.86;99963.22;5415106;32;35136;-77
2022/06/20 04:47:04;;;;;;;;;;;;;;;25.55;41.18;99957.50;5413425;32;37837;-77
2022/06/20 04:50:09;;;;;;;;;;;;;;;26.50;39.17;99959.69;5414787;32;45809;-75
2022/06/20 04:53:12;;;;;;;;;;;;;;;26.14;40.14;99957.34;5385532;32;35323;-78
2022/06/20 04:56:15;;;;;;;;;;;;;;;26.24;39.56;99958.03;5399665;32;34434;-77
2022/06/20 04:59:18;;;;;;;;;;;;;;;26.70;38.61;99950.16;5412380;32;34963;-77
2022/06/20 05:02:20;;;;;;;;;;;;;;;26.34;39.13;99956.00;5402403;32;35667;-69
2022/06/20 05:05:23;;;;;;;;;;;;;;;26.76;37.38;99965.66;5425242;32;35054;-71
2022/06/20 05:08:27;;;;;;;;;;;;;;;26.07;39.26;99965.28;5397197;32;34741;-70
2022/06/20 05:11:33;;;;;;;;;;;;;;;27.93;35.78;99970.00;5412099;32;44852;-77
2022/06/20 05:14:35;;;;;;;;;;;;;;;27.77;35.63;99970.16;5393259;32;35005;-78
2022/06/20 05:17:37;;;;;;;;;;;;;;;27.35;36.29;99966.03;5401446;32;35437;-72
2022/06/20 05:20:39;;;;;;;;;;;;;;;28.75;34.15;99956.53;5421482;32;35415;-71
2022/06/20 05:23:41;;;;;;;;;;;;;;;26.91;37.44;99971.97;5396422;32;35416;-75
2022/06/20 05:26:44;;;;;;;;;;;;;;;28.46;35.00;99953.81;5414483;32;36214;-72
2022/06/20 05:29:46;;;;;;;;;;;;;;;29.75;32.39;99954.97;5408735;32;35421;-71
2022/06/20 05:32:53;;;;;;;;;;;;;;;28.01;35.23;99963.69;5409086;32;35953;-72
2022/06/20 05:36:00;;;;;;;;;;;;;;;29.90;31.98;99961.16;5400566;32;35953;-70
2022/06/20 05:39:06;;;;;;;;;;;;;;;30.19;31.66;99968.28;5380522;32;45003;-70
2022/06/20 05:42:11;;;;;;;;;;;;;;;30.01;31.75;99952.47;5406621;32;35948;-70
2022/06/20 05:45:14;;;;;;;;;;;;;;;29.91;32.24;99962.81;5402075;32;35885;-71
2022/06/20 05:48:16;;;;;;;;;;;;;;;29.88;32.14;99968.63;5424897;32;35239;-78
2022/06/20 05:51:19;;;;;;;;;;;;;;;30.30;31.47;99966.91;5396721;32;35155;-72
2022/06/20 05:54:30;;;;;;;;;;;;;;;29.24;33.04;99968.56;5716543;26;35130;-96
2022/06/20 05:58:08;;;;;;;;;;;;;;;29.88;32.34;99965.91;5397051;32;45853;-96
2022/06/20 06:01:20;;;;;;;;;;;;;;;30.72;30.26;99968.63;5413752;27;46037;-73
2022/06/20 06:04:38;;;;;;;;;;;;;;;31.09;29.80;99964.63;5405311;32;35106;-76
2022/06/20 06:07:53;;;;;;;;;;;;;;;31.54;29.00;99971.25;5416658;32;44547;-76
2022/06/20 06:10:56;;;;;;;;;;;;;;;29.59;32.22;99972.31;5405745;32;35269;-77
2022/06/20 06:14:04;;;;;;;;;;;;;;;30.05;31.61;99967.31;5408415;32;34637;-77
2022/06/20 06:17:16;;;;;;;;;;;;;;;31.16;29.73;99960.06;5389137;32;34311;-79
2022/06/20 06:20:46;;;;;;;;;;;;;;;30.45;30.52;99973.88;5398697;32;34655;-70
2022/06/20 06:23:51;;;;;;;;;;;;;;;30.87;30.15;99960.38;5406383;32;35429;-78
2022/06/20 06:26:57;;;;;;;;;;;;;;;30.02;31.06;99961.47;5398930;32;34932;-72
2022/06/20 06:30:00;;;;;;;;;;;;;;;32.04;28.67;99952.72;5402367;32;34516;-71
2022/06/20 06:33:09;;;;;;;;;;;;;;;33.75;25.71;99946.88;5400064;32;35825;-71
2022/06/20 06:36:11;;;;;;;;;;;;;;;34.00;25.36;99944.16;5397500;32;44878;-77
2022/06/20 06:39:16;;;;;;;;;;;;;;;33.50;26.00;99938.66;5412163;32;34346;-72
2022/06/20 06:42:18;;;;;;;;;;;;;;;32.02;28.03;99956.72;5393716;32;34344;-71
2022/06/20 06:45:22;;;;;;;;;;;;;;;30.73;30.15;99952.19;5412342;32;34473;-73
2022/06/20 06:48:26;;;;;;;;;;;;;;;32.03;27.96;99953.78;5393585;32;35855;-75
2022/06/20 06:51:49;;;;;;;;;;;;;;;31.32;28.96;99952.63;5392941;32;34559;-78
2022/06/20 06:54:54;;;;;;;;;;;;;;;31.53;28.26;99950.56;5411958;32;34947;-77
2022/06/20 06:58:25;;;;;;;;;;;;;;;31.74;27.94;99944.12;5389738;32;35199;-77
2022/06/20 07:01:29;;;;;;;;;;;;;;;33.05;26.18;99943.31;5402456;32;34828;-79
2022/06/20 07:04:35;;;;;;;;;;;;;;;32.99;26.53;99942.28;5400181;32;35154;-70
2022/06/20 07:07:42;;;;;;;;;;;;;;;34.87;23.88;99931.28;5399091;32;46974;-78
2022/06/20 07:10:55;;;;;;;;;;;;;;;36.46;21.70;99920.62;5408418;32;32378;-81
2022/06/20 07:13:59;;;;;;;;;;;;;;;35.92;22.34;99919.91;5390089;32;34246;-79
2022/06/20 07:17:08;;;;;;;;;;;;;;;35.50;22.73;99900.00;5401761;32;34775;-70
2022/06/20 07:20:11;;;;;;;;;;;;;;;35.54;22.65;99895.69;5408662;32;44794;-79
2022/06/20 07:23:13;;;;;;;;;;;;;;;33.23;25.82;99905.28;5405267;32;34418;-71
2022/06/20 07:26:16;;;;;;;;;;;;;;;36.38;21.60;99884.53;5375946;32;919239;-81
2022/06/20 07:29:28;;;;;;;;;;;;;;;36.17;21.39;99897.78;5397465;32;34458;-78
2022/06/20 07:32:34;;;;;;;;;;;;;;;37.07;20.18;99888.19;5411707;32;35385;-80
2022/06/20 07:35:41;;;;;;;;;;;;;;;35.82;21.34;99884.09;5398403;32;46021;-70
2022/06/20 07:39:09;;;;;;;;;;;;;;;35.97;21.43;99868.06;5412832;32;34384;-71
2022/06/20 07:42:25;;;;;;;;;;;;;;;35.72;22.19;99870.19;5382109;32;46295;-71
2022/06/20 07:45:37;;;;;;;;;;;;;;;36.84;20.53;99872.66;5397173;32;34693;-80
2022/06/20 07:48:40;;;;;;;;;;;;;;;37.30;20.14;99870.81;5406860;32;44449;-74
2022/06/20 07:51:42;;;;;;;;;;;;;;;36.68;20.82;99867.97;5393786;32;34743;-74
2022/06/20 07:54:45;;;;;;;;;;;;;;;37.41;20.03;99856.22;5409859;32;34733;-76
2022/06/20 07:57:55;;;;;;;;;;;;;;;37.35;20.18;99854.47;5401913;32;35421;-73
2022/06/20 08:00:56;;;;;;;;;;;;;;;38.62;19.00;99861.81;5395804;32;35326;-75
2022/06/20 08:04:00;;;;;;;;;;;;;;;37.18;20.39;99873.59;5417299;32;35852;-73
2022/06/20 08:07:13;;;;;;;;;;;;;;;36.20;22.09;99860.94;5393983;32;36744;-73
2022/06/20 08:10:36;;;;;;;;;;;;;;;36.99;20.98;99859.28;5409608;32;43842;-74
2022/06/20 08:13:41;;;;;;;;;;;;;;;35.95;22.44;99859.28;5399412;32;43348;-75
2022/06/20 08:16:43;;;;;;;;;;;;;;;36.06;22.31;99854.84;5377169;32;34295;-76
2022/06/20 08:19:45;;;;;;;;;;;;;;;37.55;20.73;99856.69;5418501;32;34805;-72
2022/06/20 08:22:55;;;;;;;;;;;;;;;37.28;21.05;99845.53;5395432;32;35018;-74
2022/06/20 08:25:58;;;;;;;;;;;;;;;38.43;19.77;99839.38;5409012;32;34725;-76
2022/06/20 08:29:06;;;;;;;;;;;;;;;36.90;21.89;99852.53;5398787;32;35276;-75
2022/06/20 08:32:27;;;;;;;;;;;;;;;38.55;19.94;99843.91;5404451;32;44714;-77
2022/06/20 08:35:39;;;;;;;;;;;;;;;38.29;19.96;99846.31;5414285;32;34761;-77
2022/06/20 08:38:44;;;;;;;;;;;;;;;39.38;18.75;99823.34;5400395;32;44633;-74
2022/06/20 08:42:00;;;;;;;;;;;;;;;38.84;19.43;99823.41;5412992;32;34614;-77
2022/06/20 08:45:08;;;;;;;;;;;;;;;37.41;21.32;99837.03;5399897;32;35449;-72
2022/06/20 08:48:16;;;;;;;;;;;;;;;39.83;18.71;99832.22;5396582;32;44526;-76
2022/06/20 08:51:31;;;;;;;;;;;;;;;39.02;19.38;99827.66;5416311;32;34152;-74
2022/06/20 08:54:33;;;;;;;;;;;;;;;38.21;20.54;99835.78;5400054;32;36207;-76
2022/06/20 08:57:54;;;;;;;;;;;;;;;37.47;21.31;99837.94;5412248;32;34145;-76
2022/06/20 09:01:15;;;;;;;;;;;;;;;40.71;17.54;99822.19;5394495;32;35222;-72
2022/06/20 09:04:23;;;;;;;;;;;;;;;38.45;19.96;99822.62;5401753;32;35293;-75
2022/06/20 09:07:35;;;;;;;;;;;;;;;38.27;20.44;99822.97;5411600;32;35418;-75
2022/06/20 09:10:39;;;;;;;;;;;;;;;36.45;22.38;99823.16;5397560;32;44725;-75
2022/06/20 09:13:52;;;;;;;;;;;;;;;36.96;21.94;99818.69;5406378;32;34412;-73
2022/06/20 09:16:57;;;;;;;;;;;;;;;38.35;20.32;99817.87;5380363;32;34066;-72
2022/06/20 09:20:03;;;;;;;;;;;;;;;38.70;19.86;99806.44;5403099;32;33264;-72
2022/06/20 09:23:11;;;;;;;;;;;;;;;37.41;21.52;99787.69;5416860;32;35230;-74
2022/06/20 09:26:17;;;;;;;;;;;;;;;39.73;19.11;99795.28;5393527;32;44252;-73
2022/06/20 09:29:28;;;;;;;;;;;;;;;38.46;20.16;99794.94;5406340;32;35386;-72
2022/06/20 09:32:30;;;;;;;;;;;;;;;36.19;22.98;99786.22;5397999;32;34263;-74
2022/06/20 09:35:34;;;;;;;;;;;;;;;35.95;23.36;99777.25;5407959;32;34491;-73
2022/06/20 09:38:56;;;;;;;;;;;;;;;36.03;23.35;99752.25;5404726;32;33982;-74
2022/06/20 09:41:58;;;;;;;;;;;;;;;38.45;20.21;99759.50;5396905;32;35061;-72
2022/06/20 09:45:19;;;;;;;;;;;;;;;39.40;19.13;99746.94;5412483;32;34330;-72
2022/06/20 09:48:27;;;;;;;;;;;;;;;39.09;19.56;99750.53;5401807;32;34479;-76
2022/06/20 09:51:32;;;;;;;;;;;;;;;39.32;19.25;99755.69;5408432;32;34147;-72
2022/06/20 09:54:46;;;;;;;;;;;;;;;40.16;18.47;99743.81;5405386;32;34386;-76
2022/06/20 09:58:00;;;;;;;;;;;;;;;39.02;19.81;99750.75;5401602;32;34284;-72
2022/06/20 10:01:08;;;;;;;;;;;;;;;41.77;16.59;99735.09;5393141;32;35518;-75
2022/06/20 10:04:13;;;;;;;;;;;;;;;41.69;16.76;99721.03;5393055;32;44662;-73
2022/06/20 10:07:33;;;;;;;;;;;;;;;41.23;17.34;99730.22;5405327;32;34770;-73
2022/06/20 10:10:47;;;;;;;;;;;;;;;40.72;17.88;99734.87;5406506;32;45194;-74
2022/06/20 10:13:49;;;;;;;;;;;;;;;40.83;17.62;99728.25;5400969;32;34601;-72
2022/06/20 10:16:51;;;;;;;;;;;;;;;39.55;18.95;99713.22;5397531;32;34742;-76
2022/06/20 10:19:56;;;;;;;;;;;;;;;38.87;19.79;99723.16;5398407;32;34225;-73
2022/06/20 10:23:01;;;;;;;;;;;;;;;39.12;19.31;99725.28;5412735;32;34311;-77
2022/06/20 10:26:18;;;;;;;;;;;;;;;37.50;21.04;99709.47;5399556;32;34590;-76
2022/06/20 10:29:24;;;;;;;;;;;;;;;38.82;19.85;99712.13;5397163;32;35324;-76
2022/06/20 10:32:32;;;;;;;;;;;;;;;40.21;18.00;99701.72;5413154;32;35773;-76
2022/06/20 10:35:38;;;;;;;;;;;;;;;40.33;17.97;99713.31;5397871;32;34261;-75
2022/06/20 10:39:10;;;;;;;;;;;;;;;38.85;19.50;99714.34;5415686;32;46132;-74
2022/06/20 10:42:12;;;;;;;;;;;;;;;41.98;16.12;99702.69;5386369;32;45250;-73
2022/06/20 10:45:21;;;;;;;;;;;;;;;41.00;16.88;99711.47;5397724;32;34942;-73
2022/06/20 10:48:38;;;;;;;;;;;;;;;40.08;18.07;99700.31;5415408;32;34498;-76
2022/06/20 10:51:47;;;;;;;;;;;;;;;39.88;18.39;99697.47;5397771;32;44894;-75
2022/06/20 10:54:48;;;;;;;;;;;;;;;41.20;16.74;99691.34;5411138;32;33583;-74
2022/06/20 10:58:06;;;;;;;;;;;;;;;41.46;16.69;99706.75;5400627;32;36273;-74
2022/06/20 11:01:10;;;;;;;;;;;;;;;42.01;16.11;99690.28;5393736;32;46917;-76
2022/06/20 11:04:12;;;;;;;;;;;;;;;40.89;17.13;99688.56;5414204;32;35737;-75
2022/06/20 11:07:17;;;;;;;;;;;;;;;40.21;17.89;99691.53;5402093;32;35159;-76
2022/06/20 11:10:42;;;;;;;;;;;;;;;40.96;16.89;99680.06;5411700;32;35215;-75
2022/06/20 11:13:50;;;;;;;;;;;;;;;40.28;17.24;99685.75;5388674;32;44906;-72
2022/06/20 11:17:11;;;;;;;;;;;;;;;39.61;18.24;99670.09;5380687;32;34831;-74
2022/06/20 11:20:31;;;;;;;;;;;;;;;40.14;17.49;99668.94;5412164;32;45083;-72
2022/06/20 11:23:38;;;;;;;;;;;;;;;40.01;17.69;99663.94;5395140;32;34115;-73
2022/06/20 11:27:06;;;;;;;;;;;;;;;39.12;18.56;99665.66;5413128;32;44529;-73
2022/06/20 11:30:35;;;;;;;;;;;;;;;38.40;19.33;99666.97;5390120;32;44836;-72
2022/06/20 11:34:01;;;;;;;;;;;;;;;39.16;18.46;99661.31;5395941;32;44435;-73
2022/06/20 11:37:06;;;;;;;;;;;;;;;38.28;19.65;99674.53;5410711;32;35688;-72
2022/06/20 11:40:14;;;;;;;;;;;;;;;37.48;20.50;99678.72;5398275;32;44570;-72
2022/06/20 11:43:15;;;;;;;;;;;;;;;37.83;19.77;99677.56;5395206;32;36060;-73
2022/06/20 11:46:23;;;;;;;;;;;;;;;37.68;20.10;99687.22;5412319;32;34228;-71
2022/06/20 11:49:25;;;;;;;;;;;;;;;39.06;19.03;99669.47;5397520;32;34584;-73
2022/06/20 11:52:37;;;;;;;;;;;;;;;38.24;19.50;99675.28;5413969;32;34199;-73
2022/06/20 11:55:47;;;;;;;;;;;;;;;38.48;19.52;99673.91;5394461;32;44531;-73
2022/06/20 11:59:08;;;;;;;;;;;;;;;38.90;18.58;99670.44;5402141;32;34414;-73
2022/06/20 12:02:40;;;;;;;;;;;;;;;39.64;18.05;99662.16;5410675;32;46574;-75
2022/06/20 12:05:50;;;;;;;;;;;;;;;39.53;18.24;99663.97;5387167;32;44619;-76
2022/06/20 12:09:00;;;;;;;;;;;;;;;36.72;21.43;99675.63;5422819;32;34258;-74
2022/06/20 12:12:12;;;;;;;;;;;;;;;36.36;21.95;99663.16;5400658;32;34358;-74
2022/06/20 12:15:33;;;;;;;;;;;;;;;37.14;21.38;99656.84;5380934;32;44669;-77
2022/06/20 12:18:39;;;;;;;;;;;;;;;36.26;22.36;99669.31;5419759;32;34797;-72
2022/06/20 12:25:07;;;;;;;;;;;;;;;36.03;22.82;99642.87;5396446;32;35940;-74
2022/06/20 12:28:18;;;;;;;;;;;;;;;35.04;24.25;99644.81;5397443;32;45269;-72
2022/06/20 12:31:20;;;;;;;;;;;;;;;35.78;22.59;99642.34;5399370;32;34240;-74
2022/06/20 12:34:28;;;;;;;;;;;;;;;33.88;24.93;99643.37;5417627;32;35072;-74
2022/06/20 12:37:30;;;;;;;;;;;;;;;34.94;23.48;99631.75;5402863;32;35495;-76
2022/06/20 12:40:38;;;;;;;;;;;;;;;35.12;23.48;99632.69;5420451;32;35477;-79
2022/06/20 12:43:47;;;;;;;;;;;;;;;35.13;23.15;99634.34;5404868;32;43342;-78
2022/06/20 12:46:50;;;;;;;;;;;;;;;34.43;24.65;99638.66;5402467;32;32932;-80
2022/06/20 12:50:11;;;;;;;;;;;;;;;34.78;24.41;99624.25;5411309;32;35969;-77
2022/06/20 12:53:17;;;;;;;;;;;;;;;35.25;23.80;99622.34;5399151;32;44240;-77
2022/06/20 12:56:36;;;;;;;;;;;;;;;34.48;24.28;99625.16;5415340;32;34888;-81
2022/06/20 12:59:50;;;;;;;;;;;;;;;34.93;22.61;99621.91;5411672;32;44333;-77
2022/06/20 13:02:55;;;;;;;;;;;;;;;34.45;22.87;99617.41;5404080;32;35595;-84
2022/06/20 13:06:01;;;;;;;;;;;;;;;34.71;21.57;99618.03;5420242;32;34401;-76
2022/06/20 13:09:15;;;;;;;;;;;;;;;35.37;19.48;99616.88;5399537;32;35446;-77
2022/06/20 13:12:36;;;;;;;;;;;;;;;35.48;19.27;99621.50;5414880;32;34362;-78
2022/06/20 13:15:38;;;;;;;;;;;;;;;34.81;19.89;99601.09;5380054;32;45114;-78
2022/06/20 13:18:55;;;;;;;;;;;;;;;34.93;21.47;99610.16;5403362;32;34181;-76
2022/06/20 13:21:59;;;;;;;;;;;;;;;35.65;20.98;99609.81;5414936;32;34576;-75
2022/06/20 13:25:13;;;;;;;;;;;;;;;35.59;21.45;99603.41;5400884;32;35461;-78
2022/06/20 13:28:34;;;;;;;;;;;;;;;35.66;21.43;99609.56;5415548;32;46728;-75
2022/06/20 13:31:42;;;;;;;;;;;;;;;35.57;22.06;99611.03;5401997;32;35444;-77
2022/06/20 13:34:46;;;;;;;;;;;;;;;34.93;22.72;99602.78;5403350;32;44323;-82
2022/06/20 13:37:56;;;;;;;;;;;;;;;35.26;21.24;99596.69;5417454;32;34202;-77
2022/06/20 13:41:17;;;;;;;;;;;;;;;35.37;21.75;99600.50;5405896;32;35301;-79
2022/06/20 13:44:28;;;;;;;;;;;;;;;34.68;23.26;99592.06;5417339;32;35623;-73
2022/06/20 13:47:35;;;;;;;;;;;;;;;35.06;22.14;99579.88;5401967;32;34502;-75
2022/06/20 13:50:40;;;;;;;;;;;;;;;35.01;22.67;99593.41;5381478;32;44073;-72
2022/06/20 13:53:50;;;;;;;;;;;;;;;35.70;20.84;99588.91;5414077;32;34089;-72
2022/06/20 13:56:58;;;;;;;;;;;;;;;35.99;19.62;99576.06;5388899;32;34553;-74
2022/06/20 14:00:16;;;;;;;;;;;;;;;35.66;19.94;99565.03;5414935;32;34245;-76
2022/06/20 14:03:20;;;;;;;;;;;;;;;35.05;20.71;99567.28;5400415;32;34439;-76
2022/06/20 14:06:26;;;;;;;;;;;;;;;35.73;20.05;99558.31;5402727;32;37093;-76
2022/06/20 14:09:28;;;;;;;;;;;;;;;35.26;20.93;99552.16;5412815;32;34348;-73
2022/06/20 14:12:36;;;;;;;;;;;;;;;35.45;20.81;99561.06;5401224;32;34351;-74
2022/06/20 14:15:38;;;;;;;;;;;;;;;34.95;21.21;99559.69;5400174;32;47020;-74
2022/06/20 14:18:45;;;;;;;;;;;;;;;34.81;21.36;99552.78;5399784;32;34330;-75
2022/06/20 14:21:48;;;;;;;;;;;;;;;34.30;21.95;99561.63;5405266;32;35742;-75
2022/06/20 14:24:51;;;;;;;;;;;;;;;34.73;21.41;99550.44;5395122;32;34253;-74
2022/06/20 14:27:54;;;;;;;;;;;;;;;35.39;20.58;99540.12;5400027;32;35414;-74
2022/06/20 14:31:00;;;;;;;;;;;;;;;35.35;20.41;99539.78;5397581;32;35368;-73
2022/06/20 14:34:04;;;;;;;;;;;;;;;35.13;20.50;99539.62;5397419;32;35104;-74
2022/06/20 14:37:13;;;;;;;;;;;;;;;34.53;21.09;99541.78;5407537;32;35432;-74
2022/06/20 14:40:20;;;;;;;;;;;;;;;35.16;20.34;99539.13;5407791;32;45698;-74
2022/06/20 14:43:38;;;;;;;;;;;;;;;35.43;19.94;99525.78;5402631;32;34246;-72
2022/06/20 14:46:58;;;;;;;;;;;;;;;34.41;20.90;99515.28;5412055;32;44632;-74
2022/06/20 14:50:19;;;;;;;;;;;;;;;34.80;20.69;99520.28;5406362;32;35442;-74
2022/06/20 14:53:24;;;;;;;;;;;;;;;34.92;20.38;99516.50;5408573;32;35637;-74
2022/06/20 14:56:37;;;;;;;;;;;;;;;35.31;19.90;99521.41;5399552;32;34565;-71
2022/06/20 14:59:42;;;;;;;;;;;;;;;35.45;19.75;99509.97;5399268;32;44575;-73
2022/06/20 15:02:50;;;;;;;;;;;;;;;34.29;21.10;99500.81;5419192;32;34244;-72
2022/06/20 15:05:54;;;;;;;;;;;;;;;34.52;21.21;99507.34;5405674;32;34672;-74
2022/06/20 15:09:11;;;;;;;;;;;;;;;33.65;22.67;99514.13;5411382;32;35428;-71
2022/06/20 15:12:25;;;;;;;;;;;;;;;35.12;21.04;99504.34;5398575;32;45992;-74
2022/06/20 15:15:32;;;;;;;;;;;;;;;35.12;21.13;99505.19;5375376;32;34663;-75
2022/06/20 15:18:40;;;;;;;;;;;;;;;35.11;21.18;99521.81;5417430;32;32594;-72
2022/06/20 15:21:45;;;;;;;;;;;;;;;34.64;22.05;99510.91;5398514;32;44288;-71
2022/06/20 15:25:06;;;;;;;;;;;;;;;34.84;22.09;99503.19;5418388;32;35418;-72
2022/06/20 15:28:13;;;;;;;;;;;;;;;35.66;21.12;99502.16;5397810;32;44581;-73
2022/06/20 15:31:15;;;;;;;;;;;;;;;35.75;21.27;99517.94;5399720;32;35241;-74
2022/06/20 15:34:18;;;;;;;;;;;;;;;35.60;21.21;99520.34;5410811;32;34899;-74
2022/06/20 15:37:22;;;;;;;;;;;;;;;35.47;21.48;99513.28;5403671;32;35365;-72
2022/06/20 15:40:24;;;;;;;;;;;;;;;35.07;22.18;99512.44;5422663;32;34324;-73
2022/06/20 15:43:45;;;;;;;;;;;;;;;34.92;22.62;99502.84;5391135;32;34394;-74
2022/06/20 15:46:53;;;;;;;;;;;;;;;35.74;21.68;99505.31;5405267;32;34824;-71
2022/06/20 15:50:16;;;;;;;;;;;;;;;35.08;22.53;99494.97;5409822;32;34310;-73
2022/06/20 15:53:37;;;;;;;;;;;;;;;35.77;21.90;99490.34;5403579;32;34983;-74
2022/06/20 15:56:45;;;;;;;;;;;;;;;35.76;21.46;99497.72;5411116;32;45085;-75
2022/06/20 15:59:50;;;;;;;;;;;;;;;35.39;22.22;99510.91;5402964;32;34055;-72
2022/06/20 16:03:11;;;;;;;;;;;;;;;35.60;22.00;99506.69;5400635;32;35548;-72
2022/06/20 16:06:14;;;;;;;;;;;;;;;34.69;23.26;99489.19;5415819;32;45380;-72
2022/06/20 16:09:31;;;;;;;;;;;;;;;34.86;23.15;99492.03;5388985;32;34269;-73
2022/06/20 16:12:33;;;;;;;;;;;;;;;34.84;23.00;99484.06;5413322;32;33421;-71
2022/06/20 16:15:38;;;;;;;;;;;;;;;35.17;23.13;99474.44;5367960;32;34232;-72
2022/06/20 16:18:44;;;;;;;;;;;;;;;35.08;23.36;99490.34;5400317;32;44689;-73
2022/06/20 16:21:51;;;;;;;;;;;;;;;35.79;22.65;99474.53;5416900;32;35372;-74
2022/06/20 16:24:55;;;;;;;;;;;;;;;35.35;23.15;99476.94;5398563;32;34181;-74